Terminal Aerodrome Forecast
Issued by NWS

Home | Current Version | Previous Version | Text Only | Print | Product List | Glossary On
Versions: 1 2 3 4 5 6 7 8 9 10 11 12 13
000
FTUS45 KCYS 241121
TAFAIA
TAF
KAIA 241121Z 2412/2512 28013KT P6SM SCT250
     FM241600 33022G32KT P6SM VCSH BKN100
     FM242300 32008KT P6SM SCT150=

USA.gov is the U.S. government's official web portal to all federal, state and local government web resources and services.